Nearby METAR Reports

Here are local weather reports from nearby weather stations and airports.

KHFD - Hartford/Brainar, Connecticut, USA
Distance from station: NE 5mi, 8km
Updated: Mon, 01/27/20 12:55am EST
unable to load KHFD data RC=
unable to load KHFD data RC=
 
KMMK - Meriden, Connecticut, USA
Distance from station: SSW 13mi, 21km
Updated: Sun, 01/26/20 11:53pm EST
Overcast
Overcast
 Wind from varies
Wind: varies 5 mph , 7 km/h
Temperature: 37°F , 3°C
Wind Chill: 33°F , 1°C
Dew Point: 28°F , -2°C
Humidity: 70%
Barometer: 29.72 inHg , 1006.4 hPa
Clouds: Overcast
Visibility: 10 miles , 16 km
Cloud details: Overcast 5500 ft
2020/01/27 04:53 KMMK 270453Z AUTO VRB04KT 10SM OVC055 03/M02 A2972 RMK AO2 SLP066 T00331022 400781011
 
KBDL - Windsor Locks, Connecticut, USA
Distance from station: N 17mi, 28km
Updated: Mon, 01/27/20 12:51am EST
Mostly cloudy
Mostly cloudy
 Wind from WSW
Wind: WSW 9 mph , 15 km/h
Temperature: 37°F , 3°C
Wind Chill: 30°F , -1°C
Dew Point: 28°F , -2°C
Humidity: 70%
Barometer: 29.68 inHg , 1005.1 hPa
Clouds: Mostly cloudy
Visibility: 10 miles , 16 km
Cloud details: Mostly cloudy 5500 ft
2020/01/27 05:51 KBDL 270551Z 24008KT 10SM BKN055 03/M02 A2968 RMK AO2 SLP051 T00331022 10044 20028 58013 $
KSNC - Chester, Connecticut, USA
Distance from station: SSE 24mi, 38km
Updated: Mon, 01/27/20 12:35am EST
Overcast
Overcast
 Wind from varies
Wind: varies 6 mph , 9 km/h
Temperature: 39°F , 4°C
Wind Chill: 35°F , 2°C
Dew Point: 28°F , -2°C
Humidity: 65%
Barometer: 29.70 inHg , 1005.8 hPa
Clouds: Overcast
Visibility: 10 miles , 16 km
Cloud details: Overcast 5000 ft
2020/01/27 05:35 KSNC 270535Z AUTO VRB05KT 10SM OVC050 04/M02 A2970 RMK AO2
 
KOXC - Oxford/Waterbury, Connecticut, USA
Distance from station: SW 26mi, 42km
Updated: Mon, 01/27/20 12:51am EST
Overcast
Overcast
 Wind from W
Wind: W 7 mph , 11 km/h
Temperature: 36°F , 2°C
Wind Chill: 30°F , -1°C
Dew Point: 28°F , -2°C
Humidity: 75%
Barometer: 29.70 inHg , 1005.8 hPa
Clouds: Overcast
Visibility: 10 miles , 16 km
Cloud details: Overcast 5500 ft
2020/01/27 05:51 KOXC 270551Z AUTO 27006KT 10SM OVC055 02/M02 A2970 RMK AO2 SLP074 T00171022 10033 20017 58011 FZRANO
KIJD - Willimantic, Connecticut, USA
Distance from station: E 28mi, 45km
Updated: Mon, 01/27/20 12:52am EST
Overcast
Overcast
 Wind from W
Wind: W 6 mph , 9 km/h
Temperature: 39°F , 4°C
Wind Chill: 35°F , 2°C
Dew Point: 28°F , -2°C
Humidity: 65%
Barometer: 29.70 inHg , 1005.8 hPa
Clouds: Overcast
Visibility: 10 miles , 16 km
Cloud details: Overcast 6000 ft
2020/01/27 05:52 KIJD 270552Z AUTO 26005KT 10SM OVC060 04/M02 A2970 RMK AO2 SLP058 T00391022 10039 21006 58011 $
 
KHVN - New Haven/Tweed, Connecticut, USA
Distance from station: SSW 30mi, 48km
Updated: Sun, 01/26/20 11:53pm EST
Overcast
Overcast
 Wind from SW
Wind: SW 8 mph , 13 km/h
Temperature: 41°F , 5°C
Wind Chill: 36°F , 2°C
Dew Point: 30°F , -1°C
Humidity: 66%
Barometer: 29.74 inHg , 1007.1 hPa
Clouds: Overcast
Visibility: 10 miles , 16 km
Cloud details: Overcast 6000 ft
2020/01/27 04:53 KHVN 270453Z AUTO 23007KT 10SM OVC060 05/M01 A2974 RMK AO2 SLP069 T00501011 400890022
KBAF - Westfield, Massachusetts, USA
Distance from station: 0 33mi, 54km
Updated: Sun, 01/26/20 11:53pm EST
Overcast
Overcast
 Wind from S
Wind: S 7 mph , 11 km/h
Temperature: 36°F , 2°C
Wind Chill: 30°F , -1°C
Dew Point: 28°F , -2°C
Humidity: 75%
Barometer: 29.69 inHg , 1005.4 hPa
Clouds: Overcast
Visibility: 10 miles , 16 km
Cloud details: Overcast 6000 ft
2020/01/27 04:53 KBAF 270453Z AUTO 19006KT 10SM OVC060 02/M02 A2969 RMK AO2 SLP058 T00221022 400780006
 
KCEF - Chicopee/Westove, Massachusetts, USA
Distance from station: NNE 37mi, 60km
Updated: Sun, 01/26/20 11:56pm EST
Overcast
Overcast
 Wind from SSW
Wind: SSW 7 mph , 11 km/h
Temperature: 37°F , 3°C
Wind Chill: 32°F , 0°C
Dew Point: 28°F , -2°C
Humidity: 70%
Barometer: 29.68 inHg , 1005.1 hPa
Clouds: Overcast
Visibility: 10 miles , 16 km
Cloud details: Overcast 5000 ft
2020/01/27 04:56 KCEF 270456Z AUTO 20006KT 10SM OVC050 03/M02 A2968 RMK AO2 SLP058 T00261021 400710019
KBDR - Bridgeport, Connecticut, USA
Distance from station: SSW 42mi, 67km
Updated: Mon, 01/27/20 12:52am EST
Clear
Clear
 Wind from WSW
Wind: WSW 7 mph , 11 km/h
Temperature: 37°F , 3°C
Wind Chill: 32°F , 0°C
Dew Point: 28°F , -2°C
Humidity: 70%
Barometer: 29.73 inHg , 1006.8 hPa
Clouds: Clear
Visibility: 10 miles , 16 km
2020/01/27 05:52 KBDR 270552Z AUTO 24006KT 10SM CLR 03/M02 A2973 RMK AO2 SLP067 T00281017 10056 20028 58011
 
KGON - Groton/New Londo, Connecticut, USA
Distance from station: SE 42mi, 68km
Updated: Sun, 01/26/20 11:56pm EST
Overcast
Overcast
 Wind from W
Wind: W 9 mph , 15 km/h
Temperature: 39°F , 4°C
Wind Chill: 33°F , 1°C
Dew Point: 28°F , -2°C
Humidity: 65%
Barometer: 29.72 inHg , 1006.4 hPa
Clouds: Overcast
Visibility: 10 miles , 16 km
Cloud details: Overcast 5500 ft
2020/01/27 04:56 KGON 270456Z AUTO 27008KT 10SM OVC055 04/M02 A2972 RMK AO2 SLP063 T00441017 400720022
KDXR - Danbury, Connecticut, USA
Distance from station: WSW 45mi, 73km
Updated: Sun, 01/26/20 11:53pm EST
Mostly cloudy
Mostly cloudy
 Wind from SW
Wind: SW 6 mph , 9 km/h
Temperature: 36°F , 2°C
Wind Chill: 31°F , -1°C
Dew Point: 27°F , -3°C
Humidity: 70%
Barometer: 29.74 inHg , 1007.1 hPa
Clouds: Mostly cloudy
Visibility: 10 miles , 16 km
Cloud details: Mostly cloudy 6000 ft
2020/01/27 04:53 KDXR 270453Z AUTO 23005KT 10SM BKN060 02/M03 A2974 RMK AO2 SLP072 T00221028 400671033